createdAt,value
2023-05-19T00:00:28.318Z,4.20
2023-05-19T00:01:28.497Z,3.90
2023-05-19T00:02:29.247Z,4.30
2023-05-19T00:03:29.960Z,4.00
2023-05-19T00:04:30.648Z,3.50
2023-05-19T00:05:31.652Z,4.10
2023-05-19T00:06:32.321Z,4.50
2023-05-19T00:07:33.017Z,3.80
2023-05-19T00:08:33.768Z,3.80
2023-05-19T00:09:34.441Z,4.00
2023-05-19T00:10:35.601Z,3.90
2023-05-19T00:11:35.802Z,4.20
2023-05-19T00:12:36.507Z,3.70
2023-05-19T00:13:37.211Z,4.10
2023-05-19T00:14:37.940Z,3.60
2023-05-19T00:15:39.126Z,4.10
2023-05-19T00:16:39.313Z,4.00
2023-05-19T00:17:40.045Z,4.00
2023-05-19T00:18:40.767Z,4.10
2023-05-19T00:19:41.456Z,4.10
2023-05-19T00:20:42.615Z,3.90
2023-05-19T00:21:42.809Z,4.20
2023-05-19T00:22:43.512Z,3.70
2023-05-19T00:23:44.461Z,3.90
2023-05-19T00:24:45.084Z,3.80
2023-05-19T00:25:46.098Z,4.00
2023-05-19T00:26:46.300Z,4.00
2023-05-19T00:27:47.006Z,4.30
2023-05-19T00:28:47.711Z,4.10
2023-05-19T00:29:48.416Z,3.90
2023-05-19T00:30:49.606Z,4.20
2023-05-19T00:31:49.867Z,4.10
2023-05-19T00:32:50.593Z,4.30
2023-05-19T00:33:51.305Z,4.40
2023-05-19T00:34:52.009Z,4.20
2023-05-19T00:35:53.099Z,4.50
2023-05-19T00:36:53.306Z,4.40
2023-05-19T00:37:54.023Z,4.20
2023-05-19T00:38:54.769Z,4.40
2023-05-19T00:39:55.428Z,4.60
2023-05-19T00:40:56.601Z,3.90
2023-05-19T00:41:56.806Z,4.70
2023-05-19T00:42:57.511Z,4.60
2023-05-19T00:43:58.216Z,4.30
2023-05-19T00:44:58.920Z,4.90
2023-05-19T00:46:00.142Z,4.60
2023-05-19T00:47:00.439Z,5.10
2023-05-19T00:48:01.157Z,4.50
2023-05-19T00:49:01.820Z,4.70
2023-05-19T00:50:02.522Z,4.50
2023-05-19T00:51:03.609Z,4.50
2023-05-19T00:52:03.815Z,4.50
2023-05-19T00:53:04.519Z,4.70
2023-05-19T00:54:05.274Z,4.20
2023-05-19T00:55:05.932Z,4.10
2023-05-19T00:56:07.110Z,5.00
2023-05-19T00:57:07.313Z,4.50
2023-05-19T00:58:08.020Z,4.50
2023-05-19T00:59:08.760Z,4.60
2023-05-19T01:00:09.443Z,4.40
2023-05-19T01:01:10.806Z,4.70
2023-05-19T01:02:11.003Z,4.60
2023-05-19T01:03:11.937Z,5.40
2023-05-19T01:04:12.674Z,5.80
2023-05-19T01:05:13.370Z,5.00
2023-05-19T01:06:14.103Z,5.20
2023-05-19T01:07:14.806Z,4.70
2023-05-19T01:08:15.515Z,5.20
2023-05-19T01:09:16.353Z,4.90
2023-05-19T01:10:17.023Z,5.10
2023-05-19T01:11:18.105Z,5.00
2023-05-19T01:12:18.315Z,5.30
2023-05-19T01:13:19.022Z,5.20
2023-05-19T01:14:19.724Z,4.70
2023-05-19T01:15:20.430Z,5.20
2023-05-19T01:16:21.206Z,4.60
2023-05-19T01:17:21.852Z,4.90
2023-05-19T01:18:22.565Z,5.20
2023-05-19T01:19:23.364Z,5.10
2023-05-19T01:20:24.055Z,5.50
2023-05-19T01:21:25.129Z,5.50
2023-05-19T01:22:25.334Z,5.00
2023-05-19T01:23:26.047Z,5.40
2023-05-19T01:24:26.785Z,5.20
2023-05-19T01:25:27.429Z,5.30
2023-05-19T01:26:28.612Z,5.40
2023-05-19T01:27:28.812Z,5.20
2023-05-19T01:28:29.514Z,5.40
2023-05-19T01:29:30.215Z,5.60
2023-05-19T01:30:31.203Z,5.50
2023-05-19T01:31:31.763Z,5.20
2023-05-19T01:32:32.484Z,5.30
2023-05-19T01:33:33.141Z,5.20
2023-05-19T01:34:33.845Z,5.60
2023-05-19T01:35:34.550Z,5.30
2023-05-19T01:36:35.609Z,5.30
2023-05-19T01:37:35.817Z,5.50
2023-05-19T01:38:36.515Z,5.00
2023-05-19T01:39:37.273Z,4.70
2023-05-19T01:40:37.916Z,5.40
2023-05-19T01:41:39.115Z,5.10
2023-05-19T01:42:39.313Z,5.50
2023-05-19T01:43:40.016Z,5.10
2023-05-19T01:44:40.720Z,5.30
2023-05-19T01:45:41.522Z,5.30
2023-05-19T01:46:42.611Z,5.40
2023-05-19T01:47:42.894Z,5.40
2023-05-19T01:48:43.582Z,5.70
2023-05-19T01:49:44.266Z,5.30
2023-05-19T01:50:44.970Z,5.40
2023-05-19T01:51:46.112Z,5.80
2023-05-19T01:52:46.320Z,4.90
2023-05-19T01:53:47.025Z,5.30
2023-05-19T01:54:47.859Z,5.80
2023-05-19T01:55:48.491Z,5.30
2023-05-19T01:56:49.621Z,5.30
2023-05-19T01:57:49.817Z,5.00
2023-05-19T01:58:50.521Z,5.60
2023-05-19T01:59:51.228Z,5.50
2023-05-19T02:00:51.970Z,5.50
2023-05-19T02:01:53.131Z,5.50
2023-05-19T02:02:53.367Z,5.60
2023-05-19T02:03:54.080Z,5.80
2023-05-19T02:04:54.811Z,4.80
2023-05-19T02:05:55.552Z,5.60
